createdAt,value
2022-10-06T00:01:59.590Z,25.82
2022-10-06T00:04:27.023Z,25.81
2022-10-06T00:07:17.735Z,25.82
2022-10-06T00:09:45.023Z,25.83
2022-10-06T00:12:17.170Z,25.83
2022-10-06T00:15:05.709Z,25.85
2022-10-06T00:17:33.817Z,25.85
2022-10-06T00:20:01.408Z,25.85
2022-10-06T00:23:50.513Z,25.85
2022-10-06T00:25:49.090Z,25.85
2022-10-06T00:28:19.183Z,25.86
2022-10-06T00:30:56.526Z,25.86
2022-10-06T00:33:25.052Z,25.87
2022-10-06T00:36:03.706Z,25.87
2022-10-06T00:38:37.162Z,25.86
2022-10-06T00:41:25.804Z,25.87
2022-10-06T00:43:58.065Z,25.86
2022-10-06T00:46:47.410Z,25.86
2022-10-06T00:49:39.906Z,25.86
2022-10-06T00:52:15.544Z,25.86
2022-10-06T00:54:47.693Z,25.85
2022-10-06T00:57:25.150Z,25.85
2022-10-06T00:59:54.109Z,25.84
2022-10-06T01:02:33.070Z,25.84
2022-10-06T01:05:08.052Z,25.84
2022-10-06T01:07:36.307Z,25.84
2022-10-06T01:10:09.082Z,25.83
2022-10-06T01:12:49.629Z,25.83
2022-10-06T01:15:21.225Z,25.83
2022-10-06T01:18:10.270Z,25.82
2022-10-06T01:20:40.915Z,25.81
2022-10-06T01:23:11.398Z,25.81
2022-10-06T01:25:44.095Z,25.81
2022-10-06T01:28:20.481Z,25.81
2022-10-06T01:30:56.064Z,25.80
2022-10-06T01:33:30.909Z,25.80
2022-10-06T01:36:01.730Z,25.79
2022-10-06T01:38:39.153Z,25.79
2022-10-06T01:41:09.939Z,25.78
2022-10-06T01:43:40.583Z,25.79
2022-10-06T01:46:08.088Z,25.78
2022-10-06T01:48:38.140Z,25.78
2022-10-06T01:51:18.142Z,25.78
2022-10-06T01:53:47.701Z,25.78
2022-10-06T01:56:15.523Z,25.78
2022-10-06T01:58:43.190Z,25.78
2022-10-06T02:01:13.120Z,25.79
2022-10-06T02:03:43.157Z,25.80
2022-10-06T02:06:16.415Z,25.80
2022-10-06T02:08:47.275Z,25.80
2022-10-06T02:11:19.694Z,25.80
2022-10-06T02:13:58.667Z,25.80
2022-10-06T02:16:27.023Z,25.81
2022-10-06T02:18:57.390Z,25.80
2022-10-06T02:21:29.600Z,25.80
2022-10-06T02:24:00.014Z,25.80
2022-10-06T02:26:30.719Z,25.80
2022-10-06T02:29:01.488Z,25.80
2022-10-06T02:31:33.607Z,25.80
2022-10-06T02:34:15.770Z,25.80
2022-10-06T02:36:53.459Z,25.80
2022-10-06T02:39:28.016Z,25.80
2022-10-06T02:41:56.516Z,25.80
2022-10-06T02:44:26.143Z,25.82
2022-10-06T02:47:13.511Z,25.82
2022-10-06T02:49:47.517Z,25.82
2022-10-06T02:52:15.928Z,25.82
2022-10-06T02:54:46.300Z,25.82
2022-10-06T02:57:18.475Z,25.81
2022-10-06T02:59:46.712Z,25.80
2022-10-06T03:02:18.410Z,25.78
2022-10-06T03:04:59.772Z,25.80
2022-10-06T03:07:38.288Z,25.80
2022-10-06T03:10:08.712Z,25.78
2022-10-06T03:12:35.817Z,25.78
2022-10-06T03:15:03.956Z,25.78
2022-10-06T03:17:40.567Z,25.77
2022-10-06T03:20:14.945Z,25.78
2022-10-06T03:22:46.196Z,25.78
2022-10-06T03:25:19.406Z,25.77
2022-10-06T03:27:49.949Z,25.77
2022-10-06T03:30:29.313Z,25.76
2022-10-06T03:32:56.969Z,25.75
2022-10-06T03:35:25.944Z,25.75
2022-10-06T03:37:57.264Z,25.75
2022-10-06T03:40:29.162Z,25.74
2022-10-06T03:43:01.711Z,25.74
2022-10-06T03:46:02.450Z,25.74
2022-10-06T03:48:36.769Z,25.74
2022-10-06T03:51:12.971Z,25.74
2022-10-06T03:53:41.756Z,25.74
2022-10-06T03:56:28.007Z,25.74
2022-10-06T03:59:02.243Z,25.75
2022-10-06T04:01:47.490Z,25.74
2022-10-06T04:07:06.123Z,25.74
2022-10-06T04:09:43.252Z,25.74
2022-10-06T04:12:23.194Z,25.75
2022-10-06T04:14:56.562Z,25.76
2022-10-06T04:17:32.761Z,25.76
2022-10-06T04:20:05.360Z,25.75
2022-10-06T04:22:37.459Z,25.76
2022-10-06T04:25:18.522Z,25.77
2022-10-06T04:30:35.374Z,25.77
2022-10-06T04:33:07.790Z,25.77
2022-10-06T04:35:37.662Z,25.77
2022-10-06T04:38:11.278Z,25.78
2022-10-06T04:40:40.535Z,25.78
2022-10-06T04:43:09.274Z,25.78
2022-10-06T04:45:39.657Z,25.79
2022-10-06T04:48:10.112Z,25.79
2022-10-06T04:50:37.875Z,25.80
2022-10-06T04:53:13.159Z,25.79
2022-10-06T04:55:48.121Z,25.79
2022-10-06T04:58:19.216Z,25.79
2022-10-06T05:00:49.751Z,25.79
2022-10-06T05:03:18.160Z,25.79
2022-10-06T05:05:53.307Z,25.79
2022-10-06T05:08:20.664Z,25.78
2022-10-06T05:10:47.917Z,25.77
2022-10-06T05:13:19.450Z,25.77
2022-10-06T05:16:06.924Z,25.77
2022-10-06T05:18:35.587Z,25.77
2022-10-06T05:21:08.872Z,25.76
2022-10-06T05:23:39.121Z,25.75
2022-10-06T05:26:10.479Z,25.75
2022-10-06T05:28:44.445Z,25.75
2022-10-06T05:31:18.652Z,25.74
2022-10-06T05:33:51.744Z,25.74
2022-10-06T05:36:21.760Z,25.73
2022-10-06T05:38:50.591Z,25.72
2022-10-06T05:41:21.978Z,25.72
2022-10-06T05:43:54.164Z,25.73
2022-10-06T05:46:36.399Z,25.73
2022-10-06T05:49:08.137Z,25.73
2022-10-06T05:51:36.944Z,25.72
2022-10-06T05:54:13.174Z,25.73
2022-10-06T05:56:41.566Z,25.72
2022-10-06T05:59:11.781Z,25.73
2022-10-06T06:01:43.827Z,25.73
2022-10-06T06:04:21.572Z,25.73
2022-10-06T06:06:52.618Z,25.74
2022-10-06T06:09:23.637Z,25.74
2022-10-06T06:11:53.698Z,25.74
2022-10-06T06:14:45.882Z,25.74
2022-10-06T06:17:17.683Z,25.73
2022-10-06T06:19:44.819Z,25.73
2022-10-06T06:22:12.272Z,25.73
2022-10-06T06:24:41.682Z,25.74
2022-10-06T06:27:09.942Z,25.74
2022-10-06T06:29:37.800Z,25.74
2022-10-06T06:32:05.694Z,25.74
2022-10-06T06:34:34.518Z,25.73
2022-10-06T06:37:09.451Z,25.73
2022-10-06T06:39:40.102Z,25.74
2022-10-06T06:42:08.748Z,25.74
2022-10-06T06:44:50.672Z,25.74
2022-10-06T06:47:29.652Z,25.74
2022-10-06T06:50:00.964Z,25.75
2022-10-06T06:52:30.775Z,25.74
2022-10-06T06:54:58.592Z,25.74
2022-10-06T06:57:26.217Z,25.75
2022-10-06T06:59:57.639Z,25.76
2022-10-06T07:02:26.686Z,25.77
2022-10-06T07:04:53.930Z,25.77
2022-10-06T07:07:24.015Z,25.76
2022-10-06T07:09:54.012Z,25.76
2022-10-06T07:12:25.602Z,25.78
2022-10-06T07:15:28.837Z,25.78
2022-10-06T07:18:27.293Z,25.80
2022-10-06T07:21:13.408Z,25.80
2022-10-06T07:23:59.332Z,25.79
2022-10-06T07:26:31.195Z,25.80
2022-10-06T07:29:02.726Z,25.81
2022-10-06T07:31:33.583Z,25.82
2022-10-06T07:34:05.533Z,25.81
2022-10-06T07:36:32.545Z,25.81
2022-10-06T07:39:00.180Z,25.82
2022-10-06T07:41:33.229Z,25.82
2022-10-06T07:44:08.078Z,25.82
2022-10-06T07:46:36.620Z,25.81
2022-10-06T07:49:10.988Z,25.81
2022-10-06T07:51:38.165Z,25.82
2022-10-06T07:54:07.527Z,25.82
2022-10-06T07:57:00.674Z,25.79
2022-10-06T07:59:27.779Z,25.79
2022-10-06T08:01:55.028Z,25.79
2022-10-06T08:04:22.045Z,25.78
2022-10-06T08:06:49.724Z,25.79
2022-10-06T08:09:16.870Z,25.79
2022-10-06T08:11:45.295Z,25.80
2022-10-06T08:14:17.862Z,25.80
2022-10-06T08:16:45.069Z,25.79
2022-10-06T08:19:15.146Z,25.79
2022-10-06T08:21:42.187Z,25.79
2022-10-06T08:24:09.947Z,25.79
2022-10-06T08:26:36.978Z,25.79
2022-10-06T08:29:04.031Z,25.78
2022-10-06T08:31:32.234Z,25.78
2022-10-06T08:34:02.258Z,25.77
2022-10-06T08:36:32.388Z,25.76
2022-10-06T08:39:01.989Z,25.76
2022-10-06T08:41:48.545Z,25.77
2022-10-06T08:44:19.443Z,25.77
2022-10-06T08:47:07.004Z,25.77
2022-10-06T08:49:44.679Z,25.75
2022-10-06T08:52:32.498Z,25.75
2022-10-06T08:55:15.061Z,25.74
2022-10-06T08:58:05.057Z,25.72
2022-10-06T09:00:34.794Z,25.70
2022-10-06T09:03:02.622Z,25.71
2022-10-06T09:05:31.563Z,25.71
2022-10-06T09:08:39.372Z,25.69
2022-10-06T09:11:44.133Z,25.68
2022-10-06T09:14:19.567Z,25.68
2022-10-06T09:16:50.713Z,25.69
2022-10-06T09:19:33.940Z,25.69
2022-10-06T09:22:04.871Z,25.69
2022-10-06T09:24:42.405Z,25.68
2022-10-06T09:27:21.482Z,25.68
2022-10-06T09:29:51.845Z,25.69
2022-10-06T09:32:28.955Z,25.70
2022-10-06T09:34:59.901Z,25.71
2022-10-06T09:37:28.243Z,25.72
2022-10-06T09:39:56.048Z,25.73
2022-10-06T09:42:33.385Z,25.73
2022-10-06T09:45:04.117Z,25.73
2022-10-06T09:47:37.280Z,25.73
2022-10-06T09:50:14.769Z,25.73
2022-10-06T09:52:43.578Z,25.71
2022-10-06T09:55:13.640Z,25.71
2022-10-06T09:57:52.914Z,25.71
2022-10-06T10:00:30.824Z,25.71
2022-10-06T10:03:09.464Z,25.71
2022-10-06T10:05:46.848Z,25.72
2022-10-06T10:08:13.872Z,25.74
2022-10-06T10:10:41.258Z,25.74
2022-10-06T10:13:43.913Z,25.74
2022-10-06T10:16:20.466Z,25.74
2022-10-06T10:18:51.162Z,25.75
2022-10-06T10:21:29.930Z,25.76
2022-10-06T10:23:59.115Z,25.76
2022-10-06T10:26:31.927Z,25.76
2022-10-06T10:29:17.914Z,25.76
2022-10-06T10:32:17.464Z,25.76
2022-10-06T10:34:59.864Z,25.75
2022-10-06T10:37:43.281Z,25.75
2022-10-06T10:40:30.448Z,25.74
2022-10-06T10:43:22.623Z,25.74
2022-10-06T10:46:10.551Z,25.74
2022-10-06T10:48:47.467Z,25.74
2022-10-06T10:51:30.701Z,25.74
2022-10-06T10:54:09.807Z,25.73
2022-10-06T10:56:37.853Z,25.74
2022-10-06T10:59:45.323Z,25.73
2022-10-06T11:02:15.833Z,25.73
2022-10-06T11:04:49.836Z,25.74
2022-10-06T11:07:31.596Z,25.74
2022-10-06T11:10:16.441Z,25.75
2022-10-06T11:12:43.344Z,25.76
2022-10-06T11:15:40.714Z,25.77
2022-10-06T11:18:32.931Z,25.77
2022-10-06T11:21:06.498Z,25.77
2022-10-06T11:23:40.447Z,25.77
2022-10-06T11:26:47.529Z,25.77
2022-10-06T11:29:52.817Z,25.77
2022-10-06T11:32:37.861Z,25.78
2022-10-06T11:35:29.906Z,25.78
2022-10-06T11:38:02.774Z,25.79
2022-10-06T11:40:45.831Z,25.81
2022-10-06T11:43:35.964Z,25.81
2022-10-06T11:46:31.117Z,25.81
2022-10-06T11:49:30.120Z,25.82
2022-10-06T11:52:18.929Z,25.83
2022-10-06T11:54:54.384Z,25.84
2022-10-06T11:57:30.955Z,25.84
2022-10-06T12:00:15.997Z,25.85
2022-10-06T12:02:45.444Z,25.84
2022-10-06T12:08:02.627Z,25.84
2022-10-06T12:10:29.568Z,25.85
2022-10-06T12:13:21.164Z,25.85
2022-10-06T12:19:29.066Z,25.85
2022-10-06T12:22:02.789Z,25.86
2022-10-06T12:24:41.965Z,25.86
2022-10-06T12:27:27.015Z,25.86
2022-10-06T12:30:16.427Z,25.86
2022-10-06T12:32:49.444Z,25.87
2022-10-06T12:35:26.038Z,25.86
2022-10-06T12:38:00.697Z,25.88
2022-10-06T12:40:48.459Z,25.88
2022-10-06T12:43:18.422Z,25.89
2022-10-06T12:45:48.819Z,25.89
2022-10-06T12:48:23.352Z,25.89
2022-10-06T12:50:59.045Z,25.89
2022-10-06T12:53:34.220Z,25.89
2022-10-06T12:56:05.706Z,25.88
2022-10-06T12:58:34.158Z,25.88
2022-10-06T13:01:13.126Z,25.88
2022-10-06T13:03:40.425Z,25.88
2022-10-06T13:06:09.666Z,25.88
2022-10-06T13:08:38.607Z,25.89
2022-10-06T13:11:25.439Z,25.90
2022-10-06T13:13:59.525Z,25.90
2022-10-06T13:16:29.963Z,25.90
2022-10-06T13:18:59.244Z,25.89
2022-10-06T13:21:26.721Z,25.89
2022-10-06T13:23:53.958Z,25.90
2022-10-06T13:26:24.752Z,25.90
2022-10-06T13:28:54.826Z,25.89
2022-10-06T13:31:30.430Z,25.89
2022-10-06T13:34:01.951Z,25.90
2022-10-06T13:36:31.216Z,25.91
2022-10-06T13:38:58.472Z,25.90
2022-10-06T13:41:46.935Z,25.89
2022-10-06T13:44:19.917Z,25.89
2022-10-06T13:46:52.223Z,25.88
2022-10-06T13:49:36.851Z,25.89
2022-10-06T13:52:15.464Z,25.90
2022-10-06T13:54:47.091Z,25.91
2022-10-06T13:57:35.981Z,25.91
2022-10-06T14:00:15.019Z,25.90
2022-10-06T14:02:44.050Z,25.90
2022-10-06T14:05:23.010Z,25.89
2022-10-06T14:07:51.476Z,25.87
2022-10-06T14:10:28.298Z,25.86
2022-10-06T14:12:55.788Z,25.86
2022-10-06T14:15:29.618Z,25.85
2022-10-06T14:18:03.460Z,25.84
2022-10-06T14:20:47.621Z,25.84
2022-10-06T14:23:41.699Z,25.83
2022-10-06T14:26:11.387Z,25.82
2022-10-06T14:28:40.269Z,25.82
2022-10-06T14:31:11.992Z,25.82
2022-10-06T14:33:41.441Z,25.82
2022-10-06T14:36:17.060Z,25.82
2022-10-06T14:38:47.171Z,25.82
2022-10-06T14:41:18.858Z,25.82
2022-10-06T14:43:47.836Z,25.81
2022-10-06T14:46:15.796Z,25.80
2022-10-06T14:48:42.902Z,25.79
2022-10-06T14:51:10.503Z,25.78
2022-10-06T14:53:39.553Z,25.77
2022-10-06T14:56:11.652Z,25.77
2022-10-06T14:58:40.085Z,25.77
2022-10-06T15:01:08.122Z,25.76
2022-10-06T15:03:36.519Z,25.76
2022-10-06T15:06:27.445Z,25.76
2022-10-06T15:08:57.979Z,25.75
2022-10-06T15:11:27.377Z,25.75
2022-10-06T15:13:59.343Z,25.75
2022-10-06T15:16:29.399Z,25.75
2022-10-06T15:18:58.625Z,25.75
2022-10-06T15:21:26.771Z,25.75
2022-10-06T15:24:01.139Z,25.75
2022-10-06T15:26:47.516Z,25.75
2022-10-06T15:29:14.918Z,25.75
2022-10-06T15:31:55.335Z,25.75
2022-10-06T15:34:27.789Z,25.76
2022-10-06T15:36:56.541Z,25.76
2022-10-06T15:39:28.584Z,25.75
2022-10-06T15:41:55.840Z,25.75
2022-10-06T15:44:23.365Z,25.76
2022-10-06T15:46:53.384Z,25.76
2022-10-06T15:49:21.571Z,25.76
2022-10-06T15:51:52.635Z,25.76
2022-10-06T15:54:23.978Z,25.76
2022-10-06T15:56:59.368Z,25.77
2022-10-06T15:59:28.016Z,25.77
2022-10-06T16:01:57.966Z,25.77
2022-10-06T16:04:48.229Z,25.77
2022-10-06T16:07:20.089Z,25.76
2022-10-06T16:09:49.379Z,25.76
2022-10-06T16:12:19.931Z,25.75
2022-10-06T16:14:47.059Z,25.75
2022-10-06T16:17:14.611Z,25.74
2022-10-06T16:19:41.849Z,25.73
2022-10-06T16:22:12.172Z,25.72
2022-10-06T16:24:39.438Z,25.72
2022-10-06T16:27:07.093Z,25.73
2022-10-06T16:29:34.038Z,25.73
2022-10-06T16:32:00.987Z,25.74
2022-10-06T16:34:28.000Z,25.74
2022-10-06T16:36:54.980Z,25.75
2022-10-06T16:39:23.206Z,25.75
2022-10-06T16:41:51.113Z,25.76
2022-10-06T16:44:18.622Z,25.76
2022-10-06T16:46:45.670Z,25.77
2022-10-06T16:49:12.944Z,25.78
2022-10-06T16:51:45.970Z,25.78
2022-10-06T16:54:14.920Z,25.78
2022-10-06T16:56:48.101Z,25.79
2022-10-06T16:59:17.442Z,25.78
2022-10-06T17:01:45.075Z,25.79
2022-10-06T17:04:14.971Z,25.79
2022-10-06T17:06:44.960Z,25.79
2022-10-06T17:09:14.675Z,25.79
2022-10-06T17:11:44.661Z,25.78
2022-10-06T17:14:12.297Z,25.78
2022-10-06T17:16:41.735Z,25.78
2022-10-06T17:19:11.305Z,25.76
2022-10-06T17:21:48.077Z,25.75
2022-10-06T17:24:20.135Z,25.75
2022-10-06T17:26:50.452Z,25.74
2022-10-06T17:29:21.697Z,25.74
2022-10-06T17:31:53.515Z,25.74
2022-10-06T17:34:23.540Z,25.73
2022-10-06T17:36:52.907Z,25.71
2022-10-06T17:39:22.388Z,25.69
2022-10-06T17:41:52.981Z,25.67
2022-10-06T17:44:29.738Z,25.66
2022-10-06T17:47:01.092Z,25.66
2022-10-06T17:49:32.887Z,25.66
2022-10-06T17:52:00.862Z,25.66
2022-10-06T17:54:28.790Z,25.66
2022-10-06T17:56:59.148Z,25.67
2022-10-06T17:59:29.416Z,25.68
2022-10-06T18:02:00.570Z,25.68
2022-10-06T18:04:29.324Z,25.69
2022-10-06T18:06:57.405Z,25.69
2022-10-06T18:09:25.510Z,25.70
2022-10-06T18:11:56.977Z,25.71
2022-10-06T18:14:27.683Z,25.71
2022-10-06T18:16:59.119Z,25.71
2022-10-06T18:19:45.519Z,25.72
2022-10-06T18:22:14.431Z,25.73
2022-10-06T18:24:42.665Z,25.73
2022-10-06T18:27:09.903Z,25.73
2022-10-06T18:29:38.919Z,25.73
2022-10-06T18:37:41.936Z,25.72
2022-10-06T18:40:10.204Z,25.72
2022-10-06T18:42:38.882Z,25.71
2022-10-06T18:45:25.315Z,25.71
2022-10-06T18:48:11.100Z,25.70
2022-10-06T18:50:38.101Z,25.70
2022-10-06T18:53:05.037Z,25.71
2022-10-06T18:55:32.591Z,25.70
2022-10-06T18:57:59.682Z,25.69
2022-10-06T19:00:26.682Z,25.70
2022-10-06T19:02:55.607Z,25.71
2022-10-06T19:05:23.550Z,25.71
2022-10-06T19:07:53.089Z,25.72
2022-10-06T19:10:20.194Z,25.72
2022-10-06T19:12:49.775Z,25.72
2022-10-06T19:15:25.475Z,25.72
2022-10-06T19:17:53.730Z,25.71
2022-10-06T19:20:24.613Z,25.71
2022-10-06T19:22:53.089Z,25.71
2022-10-06T19:25:29.636Z,25.71
2022-10-06T19:28:02.018Z,25.71
2022-10-06T19:32:54.428Z,25.71
2022-10-06T19:35:21.462Z,25.68
2022-10-06T19:37:48.462Z,25.67
2022-10-06T19:40:15.555Z,25.66
2022-10-06T19:42:48.864Z,25.64
2022-10-06T19:45:18.062Z,25.63
2022-10-06T19:47:46.443Z,25.61
2022-10-06T19:50:15.641Z,25.61
2022-10-06T19:52:42.988Z,25.58
2022-10-06T19:55:10.139Z,25.57
2022-10-06T19:57:37.196Z,25.55
2022-10-06T20:00:06.926Z,25.54
2022-10-06T20:02:43.473Z,25.53
2022-10-06T20:05:13.492Z,25.53
2022-10-06T20:07:42.246Z,25.53
2022-10-06T20:10:12.014Z,25.55
2022-10-06T20:12:41.675Z,25.57
2022-10-06T20:15:10.167Z,25.59
2022-10-06T20:17:37.697Z,25.61
2022-10-06T20:20:05.068Z,25.62
2022-10-06T20:22:32.224Z,25.64
2022-10-06T20:24:59.283Z,25.66
2022-10-06T20:27:26.355Z,25.67
2022-10-06T20:29:54.121Z,25.68
2022-10-06T20:32:22.227Z,25.70
2022-10-06T20:34:49.159Z,25.70
2022-10-06T20:37:16.142Z,25.70
2022-10-06T20:40:01.929Z,25.69
2022-10-06T20:42:31.534Z,25.68
2022-10-06T20:44:58.581Z,25.67
2022-10-06T20:47:25.508Z,25.66
2022-10-06T20:49:56.048Z,25.65
2022-10-06T20:52:24.468Z,25.64
2022-10-06T20:54:51.577Z,25.62
2022-10-06T20:57:20.345Z,25.61
2022-10-06T20:59:49.193Z,25.61
2022-10-06T21:02:30.257Z,25.61
2022-10-06T21:04:59.255Z,25.61
2022-10-06T21:07:39.299Z,25.59
2022-10-06T21:10:09.253Z,25.59
2022-10-06T21:12:38.271Z,25.59
2022-10-06T21:15:10.850Z,25.57
2022-10-06T21:17:38.815Z,25.56
2022-10-06T21:20:08.442Z,25.55
2022-10-06T21:22:35.908Z,25.55
2022-10-06T21:25:07.516Z,25.54
2022-10-06T21:27:38.289Z,25.53
2022-10-06T21:30:05.748Z,25.52
2022-10-06T21:32:33.932Z,25.52
2022-10-06T21:35:00.867Z,25.53
2022-10-06T21:37:27.914Z,25.54
2022-10-06T21:39:57.642Z,25.54
2022-10-06T21:42:28.878Z,25.55
2022-10-06T21:44:55.826Z,25.53
2022-10-06T21:47:22.842Z,25.53
2022-10-06T21:49:49.808Z,25.53
2022-10-06T21:52:16.736Z,25.52
2022-10-06T21:54:45.949Z,25.51
2022-10-06T21:57:18.016Z,25.50
2022-10-06T21:59:47.726Z,25.51
2022-10-06T22:02:17.126Z,25.50
2022-10-06T22:04:44.483Z,25.49
2022-10-06T22:07:12.953Z,25.49
2022-10-06T22:09:46.265Z,25.48
2022-10-06T22:12:13.204Z,25.47
2022-10-06T22:14:40.157Z,25.47
2022-10-06T22:17:07.109Z,25.47
2022-10-06T22:19:34.674Z,25.47
2022-10-06T22:22:01.597Z,25.46
2022-10-06T22:24:35.820Z,25.45
2022-10-06T22:27:04.500Z,25.44
2022-10-06T22:29:33.092Z,25.45
2022-10-06T22:32:02.444Z,25.45
2022-10-06T22:34:38.381Z,25.46
2022-10-06T22:37:11.135Z,25.47
2022-10-06T22:39:38.185Z,25.48
2022-10-06T22:42:05.220Z,25.48
2022-10-06T22:44:32.582Z,25.47
2022-10-06T22:46:59.514Z,25.47
2022-10-06T22:49:26.797Z,25.48
2022-10-06T22:51:53.927Z,25.47
2022-10-06T22:54:22.523Z,25.48
2022-10-06T22:56:49.884Z,25.48
2022-10-06T22:59:17.475Z,25.49
2022-10-06T23:01:46.042Z,25.49
2022-10-06T23:04:13.365Z,25.49
2022-10-06T23:06:40.235Z,25.50
2022-10-06T23:09:08.794Z,25.50
2022-10-06T23:11:36.754Z,25.50
2022-10-06T23:14:03.919Z,25.50
2022-10-06T23:16:31.198Z,25.50
2022-10-06T23:18:58.411Z,25.49
2022-10-06T23:21:32.991Z,25.49
2022-10-06T23:24:02.732Z,25.49
2022-10-06T23:26:33.394Z,25.48
2022-10-06T23:29:01.682Z,25.48
2022-10-06T23:31:30.519Z,25.48
2022-10-06T23:33:58.423Z,25.48
2022-10-06T23:36:26.482Z,25.48
2022-10-06T23:38:53.652Z,25.48
2022-10-06T23:41:20.899Z,25.48
2022-10-06T23:43:50.298Z,25.48
2022-10-06T23:46:17.995Z,25.47
2022-10-06T23:48:44.989Z,25.48
2022-10-06T23:51:14.203Z,25.47
2022-10-06T23:53:41.996Z,25.47
2022-10-06T23:56:10.031Z,25.48
2022-10-06T23:58:37.910Z,25.48
